KBS weather

Bo Airport
Bo, Southern Province, Sierra Leone

Public forecast

Using degrees Celsius for public forecast. Weather courtesy of forecast.io.

Closest aviation weather report (METAR) to Bo Airport

Report is more than 6 hours old.

Closest report is Lungi International Airport, 94.3 nm (174.6 km) WNW. Retrieved 2020/05/31 15:00 UTC (18 hours ago):

GFLL 311500Z 24008KT 7000 TSRA BKN011 FEW026CB 27/23 Q1012 RMK CB-NE/SE

Closest aviation forecast (TAF) to Bo Airport

Forecast is more than 12 hours old.

Closest forecast is Lungi International Airport, 94.3 nm (174.6 km) WNW. Retrieved 2020/05/31 18:00 UTC (15 hours ago):

TAF COR GFLL 311700Z 3118/0124 16005KT 9999 BKN013 FEW027CB TEMPO 0106/0110 VRB03KT BKN010 FEW026CB TEMPO 0116/0120 27008KT TS BKN012 FEW027CB TEMPO 20006KT 8000 TSRA BKN010 FEW026CB PROB30